createdAt,value
2019-02-17T00:00:02.613Z,3.32
2019-02-17T00:01:02.638Z,3.31
2019-02-17T00:02:02.666Z,3.24
2019-02-17T00:03:02.689Z,3.17
2019-02-17T00:04:02.713Z,3.23
2019-02-17T00:05:02.737Z,3.18
2019-02-17T00:06:02.764Z,3.20
2019-02-17T00:07:02.788Z,3.13
2019-02-17T00:08:02.814Z,3.20
2019-02-17T00:09:02.837Z,3.05
2019-02-17T00:10:02.862Z,3.14
2019-02-17T00:11:02.888Z,3.15
2019-02-17T00:12:02.914Z,3.13
2019-02-17T00:13:02.938Z,3.17
2019-02-17T00:14:02.963Z,3.14
2019-02-17T00:15:02.986Z,3.02
2019-02-17T00:16:03.011Z,3.11
2019-02-17T00:17:03.086Z,3.06
2019-02-17T00:18:03.062Z,2.97
2019-02-17T00:19:03.167Z,2.90
2019-02-17T00:20:03.112Z,2.96
2019-02-17T00:21:03.137Z,2.90
2019-02-17T00:22:03.160Z,2.95
2019-02-17T00:23:03.184Z,2.84
2019-02-17T00:24:03.211Z,2.97
2019-02-17T00:25:03.233Z,2.82
2019-02-17T00:26:03.258Z,2.81
2019-02-17T00:27:03.285Z,2.79
2019-02-17T00:28:03.315Z,2.81
2019-02-17T00:29:03.333Z,2.89
2019-02-17T00:30:03.368Z,2.92
2019-02-17T00:31:03.382Z,3.06
2019-02-17T00:32:03.407Z,3.05
2019-02-17T00:33:03.434Z,3.05
2019-02-17T00:34:03.456Z,2.97
2019-02-17T00:35:03.481Z,2.90
2019-02-17T00:36:03.506Z,2.96
2019-02-17T00:37:03.529Z,2.90
2019-02-17T00:38:03.554Z,2.81
2019-02-17T00:39:03.643Z,2.78
2019-02-17T00:40:03.606Z,2.89
2019-02-17T00:41:03.644Z,2.82
2019-02-17T00:42:03.654Z,2.82
2019-02-17T00:43:03.681Z,2.87
2019-02-17T00:44:03.707Z,2.92
2019-02-17T00:45:03.734Z,2.97
2019-02-17T00:46:03.755Z,3.05
2019-02-17T00:47:03.778Z,2.97
2019-02-17T00:48:03.805Z,2.95
2019-02-17T00:49:03.827Z,3.03
2019-02-17T00:50:03.859Z,3.02
2019-02-17T00:51:03.876Z,2.84
2019-02-17T00:52:03.902Z,2.93
2019-02-17T00:53:03.925Z,2.79
2019-02-17T00:54:03.951Z,2.72
2019-02-17T00:55:03.978Z,2.69
2019-02-17T00:56:04.001Z,2.64
2019-02-17T00:57:04.024Z,2.69
2019-02-17T00:58:04.048Z,2.60
2019-02-17T00:59:10.290Z,2.56
2019-02-17T01:00:04.099Z,2.72
2019-02-17T01:01:04.126Z,2.85
2019-02-17T01:02:04.151Z,2.69
2019-02-17T01:03:04.176Z,2.69
2019-02-17T01:04:04.277Z,2.72
2019-02-17T01:05:04.225Z,2.63
2019-02-17T01:06:04.249Z,2.57
2019-02-17T01:07:04.272Z,2.57
2019-02-17T01:08:04.297Z,2.48
2019-02-17T01:09:04.325Z,2.48
2019-02-17T01:10:04.348Z,2.48
2019-02-17T01:11:04.373Z,2.52
2019-02-17T01:12:04.399Z,2.72
2019-02-17T01:13:04.421Z,2.84
2019-02-17T01:14:04.446Z,2.74
2019-02-17T01:15:04.472Z,2.72
2019-02-17T01:16:04.496Z,2.74
2019-02-17T01:17:04.521Z,2.85
2019-02-17T01:18:04.543Z,2.81
2019-02-17T01:19:04.619Z,2.84
2019-02-17T01:20:04.593Z,2.74
2019-02-17T01:21:04.625Z,2.69
2019-02-17T01:22:04.642Z,2.75
2019-02-17T01:23:04.667Z,2.78
2019-02-17T01:24:04.691Z,2.78
2019-02-17T01:25:04.716Z,2.77
2019-02-17T01:26:04.749Z,2.67
2019-02-17T01:27:04.763Z,2.69
2019-02-17T01:28:04.789Z,2.66
2019-02-17T01:29:04.817Z,2.66
2019-02-17T01:30:04.837Z,2.59
2019-02-17T01:31:04.865Z,2.56
2019-02-17T01:32:04.888Z,2.67
2019-02-17T01:33:04.909Z,2.60
2019-02-17T01:34:04.935Z,2.53
2019-02-17T01:35:04.962Z,2.48
2019-02-17T01:36:04.984Z,2.56
2019-02-17T01:37:05.007Z,2.39
2019-02-17T01:38:05.036Z,2.38
2019-02-17T01:39:05.065Z,2.34
2019-02-17T01:40:05.083Z,2.23
2019-02-17T01:41:05.109Z,2.27
2019-02-17T01:42:05.161Z,2.28
2019-02-17T01:43:05.154Z,2.39
2019-02-17T01:44:05.179Z,2.24
2019-02-17T01:45:05.206Z,2.27
2019-02-17T01:46:05.231Z,2.31
2019-02-17T01:47:05.257Z,2.35
2019-02-17T01:48:05.279Z,2.27
2019-02-17T01:49:05.302Z,2.39
2019-02-17T01:50:05.327Z,2.39
2019-02-17T01:51:05.353Z,2.53
2019-02-17T01:52:05.375Z,2.43
2019-02-17T01:53:05.403Z,2.36
2019-02-17T01:54:05.426Z,2.31
2019-02-17T01:55:05.449Z,2.34
2019-02-17T01:56:05.478Z,2.35
2019-02-17T01:57:05.497Z,2.23
2019-02-17T01:58:05.522Z,2.27
2019-02-17T01:59:05.556Z,2.28
2019-02-17T02:00:05.571Z,2.30
2019-02-17T02:01:05.594Z,2.34
2019-02-17T02:02:05.619Z,2.27
2019-02-17T02:03:05.645Z,2.31
2019-02-17T02:04:05.669Z,2.25
2019-02-17T02:05:05.692Z,2.45
2019-02-17T02:06:05.718Z,2.39
2019-02-17T02:07:05.740Z,2.28
2019-02-17T02:08:05.765Z,2.25
2019-02-17T02:09:05.789Z,2.24
2019-02-17T02:10:05.814Z,2.27
2019-02-17T02:11:05.841Z,2.25
2019-02-17T02:12:05.863Z,2.12
2019-02-17T02:13:05.886Z,2.16
2019-02-17T02:14:06.546Z,2.10
2019-02-17T02:15:05.936Z,2.06
2019-02-17T02:16:05.961Z,2.06
2019-02-17T02:17:05.983Z,1.98
2019-02-17T02:18:06.008Z,2.02
2019-02-17T02:19:06.032Z,2.02
2019-02-17T02:20:06.059Z,1.99
2019-02-17T02:21:06.080Z,2.20
2019-02-17T02:22:06.105Z,2.17
2019-02-17T02:23:06.129Z,2.16
2019-02-17T02:24:06.157Z,2.20
2019-02-17T02:25:06.177Z,2.14
2019-02-17T02:26:06.203Z,2.14
2019-02-17T02:27:06.233Z,2.07
2019-02-17T02:28:06.251Z,1.99
2019-02-17T02:29:06.275Z,1.99
2019-02-17T02:30:06.300Z,1.99
2019-02-17T02:31:06.324Z,2.17
2019-02-17T02:32:06.349Z,1.98
2019-02-17T02:33:06.375Z,2.17
2019-02-17T02:34:06.396Z,2.18
2019-02-17T02:35:06.471Z,2.14
2019-02-17T02:36:06.448Z,2.10
2019-02-17T02:37:06.468Z,2.00
2019-02-17T02:38:06.494Z,2.07
2019-02-17T02:39:06.525Z,2.00
2019-02-17T02:40:06.544Z,1.98
2019-02-17T02:41:06.570Z,1.83
2019-02-17T02:42:06.590Z,1.63
2019-02-17T02:43:06.614Z,1.40
2019-02-17T02:44:06.639Z,1.37
2019-02-17T02:45:06.662Z,1.32
2019-02-17T02:46:06.689Z,1.32
2019-02-17T02:47:06.712Z,1.34
2019-02-17T02:48:06.736Z,1.41
2019-02-17T02:49:06.762Z,1.36
2019-02-17T02:50:06.783Z,1.34
2019-02-17T02:51:06.809Z,1.40
2019-02-17T02:52:06.831Z,1.36
2019-02-17T02:53:06.855Z,1.30
2019-02-17T02:54:06.882Z,1.32
2019-02-17T02:55:06.905Z,1.32
2019-02-17T02:56:06.931Z,1.32
2019-02-17T02:57:06.952Z,1.34
2019-02-17T02:58:06.978Z,1.36
2019-02-17T02:59:07.003Z,1.37
2019-02-17T03:00:07.025Z,1.47
2019-02-17T03:01:07.050Z,1.45
2019-02-17T03:02:07.073Z,1.68
2019-02-17T03:03:07.097Z,1.65
2019-02-17T03:04:07.123Z,1.81
2019-02-17T03:05:07.145Z,1.63
2019-02-17T03:06:07.176Z,1.70
2019-02-17T03:07:07.194Z,1.87
2019-02-17T03:08:07.219Z,1.98
2019-02-17T03:09:07.241Z,1.91
2019-02-17T03:10:07.277Z,1.95
2019-02-17T03:11:07.291Z,1.98
2019-02-17T03:12:07.366Z,2.03
2019-02-17T03:13:07.341Z,2.00
2019-02-17T03:14:07.362Z,2.02
2019-02-17T03:15:07.387Z,2.03
2019-02-17T03:16:07.410Z,2.00
2019-02-17T03:17:10.840Z,2.17
2019-02-17T03:18:07.459Z,2.10
2019-02-17T03:19:07.486Z,2.16
2019-02-17T03:20:07.507Z,2.10
2019-02-17T03:21:07.531Z,2.14
2019-02-17T03:22:07.555Z,2.17
2019-02-17T03:23:07.579Z,2.12
2019-02-17T03:24:07.610Z,2.09
2019-02-17T03:25:07.625Z,2.02
2019-02-17T03:26:07.651Z,1.98
2019-02-17T03:27:07.675Z,2.02
2019-02-17T03:28:07.700Z,1.90
2019-02-17T03:29:07.724Z,1.98
2019-02-17T03:30:07.748Z,1.99
2019-02-17T03:31:07.774Z,2.03
2019-02-17T03:32:07.865Z,2.02
2019-02-17T03:33:07.896Z,2.17
2019-02-17T03:34:07.846Z,2.25
2019-02-17T03:35:07.868Z,2.31
2019-02-17T03:36:07.892Z,2.39
2019-02-17T03:37:07.915Z,2.36
2019-02-17T03:38:07.941Z,2.24
2019-02-17T03:39:07.965Z,2.34
2019-02-17T03:40:07.991Z,2.39
2019-02-17T03:41:08.018Z,2.35
2019-02-17T03:42:08.050Z,2.34
2019-02-17T03:43:08.068Z,2.45
2019-02-17T03:44:08.086Z,2.45
2019-02-17T03:45:08.112Z,2.45
2019-02-17T03:46:08.194Z,2.48
2019-02-17T03:47:08.160Z,2.38
2019-02-17T03:48:08.184Z,2.42
2019-02-17T03:49:08.205Z,2.38
2019-02-17T03:50:08.252Z,2.39
2019-02-17T03:51:08.256Z,2.34
2019-02-17T03:52:08.279Z,2.21
2019-02-17T03:53:08.353Z,2.39
2019-02-17T03:54:08.328Z,2.43
2019-02-17T03:55:08.350Z,2.31
2019-02-17T03:56:08.378Z,2.42
2019-02-17T03:57:08.398Z,2.46
2019-02-17T03:58:08.427Z,2.48
2019-02-17T03:59:08.450Z,2.24
2019-02-17T04:00:16.593Z,2.31
2019-02-17T04:01:08.501Z,2.25
2019-02-17T04:02:08.521Z,2.25
2019-02-17T04:03:08.548Z,2.17
2019-02-17T04:04:08.570Z,2.17
2019-02-17T04:05:08.593Z,2.21
2019-02-17T04:06:08.670Z,2.17
2019-02-17T04:07:08.643Z,2.17
2019-02-17T04:08:08.668Z,2.18
2019-02-17T04:09:08.691Z,2.14
2019-02-17T04:10:08.715Z,2.21
2019-02-17T04:11:08.739Z,2.18
2019-02-17T04:12:08.765Z,2.14
2019-02-17T04:13:08.786Z,2.14
2019-02-17T04:14:08.814Z,2.12
2019-02-17T04:15:08.835Z,2.14
2019-02-17T04:16:08.860Z,2.07
2019-02-17T04:17:08.883Z,2.14
2019-02-17T04:18:08.908Z,2.17
2019-02-17T04:19:08.932Z,2.14
2019-02-17T04:20:08.959Z,2.16
2019-02-17T04:21:08.980Z,2.24
2019-02-17T04:22:09.004Z,2.16
2019-02-17T04:23:09.029Z,2.27
2019-02-17T04:24:09.057Z,2.18
2019-02-17T04:25:09.076Z,2.21
2019-02-17T04:26:09.103Z,2.16
2019-02-17T04:27:09.127Z,2.16
2019-02-17T04:28:09.151Z,1.95
2019-02-17T04:29:10.319Z,1.98
2019-02-17T04:30:09.199Z,2.05
2019-02-17T04:31:09.223Z,2.00
2019-02-17T04:32:09.253Z,2.00
2019-02-17T04:33:09.276Z,2.03
2019-02-17T04:34:09.298Z,2.03
2019-02-17T04:35:09.320Z,1.95
2019-02-17T04:36:09.345Z,1.98
2019-02-17T04:37:09.366Z,1.99
2019-02-17T04:38:09.396Z,1.95
2019-02-17T04:39:09.417Z,1.93
2019-02-17T04:40:09.449Z,1.84
2019-02-17T04:41:09.465Z,1.81
2019-02-17T04:42:09.491Z,1.83
2019-02-17T04:43:09.510Z,1.80
2019-02-17T04:44:09.535Z,1.72
2019-02-17T04:45:09.560Z,1.66
2019-02-17T04:46:09.583Z,1.58
2019-02-17T04:47:09.609Z,1.48
2019-02-17T04:48:09.632Z,1.36
2019-02-17T04:49:09.655Z,1.36
2019-02-17T04:50:09.679Z,1.32
2019-02-17T04:51:09.702Z,1.22
2019-02-17T04:52:09.729Z,1.04
2019-02-17T04:53:09.753Z,0.88
2019-02-17T04:54:09.794Z,0.86
2019-02-17T04:55:09.798Z,0.80
2019-02-17T04:56:09.825Z,0.72
2019-02-17T04:57:09.849Z,0.60
2019-02-17T04:58:09.872Z,0.47
2019-02-17T04:59:09.898Z,0.50
2019-02-17T05:00:09.921Z,0.41
2019-02-17T05:01:09.944Z,0.35
2019-02-17T05:02:09.971Z,0.36
2019-02-17T05:03:10.059Z,0.29
2019-02-17T05:04:10.022Z,0.32
2019-02-17T05:05:10.040Z,0.18
2019-02-17T05:06:10.065Z,0.20
2019-02-17T05:07:10.088Z,0.11
2019-02-17T05:08:10.114Z,0.10
2019-02-17T05:09:10.139Z,0.08
2019-02-17T05:10:10.165Z,0.07
2019-02-17T05:11:10.185Z,0.08
2019-02-17T05:12:10.209Z,0.11
2019-02-17T05:13:10.235Z,0.03
2019-02-17T05:14:10.258Z,0.13
2019-02-17T05:15:10.833Z,0.07
2019-02-17T05:16:10.309Z,0.14
2019-02-17T05:17:10.328Z,0.07
2019-02-17T05:18:10.354Z,0.03
2019-02-17T05:19:10.378Z,0.04
2019-02-17T05:20:10.404Z,0.10
2019-02-17T05:21:10.426Z,0.03
2019-02-17T05:22:10.452Z,0.00
2019-02-17T05:23:10.478Z,-0.03
2019-02-17T05:24:10.499Z,-0.04
2019-02-17T05:25:10.521Z,-0.05
2019-02-17T05:26:10.546Z,-0.08
2019-02-17T05:27:10.569Z,-0.11
2019-02-17T05:28:10.593Z,-0.15
2019-02-17T05:29:10.617Z,-0.07
2019-02-17T05:30:10.651Z,-0.07
2019-02-17T05:31:10.666Z,-0.08
2019-02-17T05:32:10.690Z,-0.01
2019-02-17T05:33:10.711Z,0.11
2019-02-17T05:34:10.735Z,0.18
2019-02-17T05:35:10.759Z,0.32
2019-02-17T05:36:10.785Z,0.23
2019-02-17T05:37:10.807Z,0.11
2019-02-17T05:38:10.832Z,-0.03
2019-02-17T05:39:10.859Z,-0.16
2019-02-17T05:40:10.885Z,-0.28
2019-02-17T05:41:10.901Z,-0.33
2019-02-17T05:42:10.938Z,-0.47
2019-02-17T05:43:10.949Z,-0.51
2019-02-17T05:44:10.972Z,-0.55
2019-02-17T05:45:10.997Z,-0.36
2019-02-17T05:46:11.021Z,-0.31
2019-02-17T05:47:11.053Z,-0.33
2019-02-17T05:48:11.068Z,-0.22
2019-02-17T05:49:11.089Z,-0.18
2019-02-17T05:50:11.115Z,-0.10
2019-02-17T05:51:11.142Z,-0.10
2019-02-17T05:52:11.162Z,0.15
2019-02-17T05:53:11.184Z,0.20
2019-02-17T05:54:11.212Z,0.21
2019-02-17T05:55:11.233Z,0.35
2019-02-17T05:56:11.258Z,0.39
2019-02-17T05:57:11.281Z,0.46
2019-02-17T05:58:11.304Z,0.66
2019-02-17T05:59:11.328Z,0.68
2019-02-17T06:00:11.351Z,0.68
2019-02-17T06:01:11.373Z,0.61
2019-02-17T06:02:11.398Z,0.65
2019-02-17T06:03:11.420Z,0.69
2019-02-17T06:04:11.446Z,0.86
2019-02-17T06:05:11.467Z,0.94
2019-02-17T06:06:11.492Z,1.06
2019-02-17T06:07:11.514Z,1.11
2019-02-17T06:08:11.538Z,1.00
2019-02-17T06:09:11.562Z,1.06
2019-02-17T06:10:11.585Z,1.15
2019-02-17T06:11:11.614Z,1.18
2019-02-17T06:12:11.634Z,0.98
2019-02-17T06:13:11.657Z,0.80
2019-02-17T06:14:11.678Z,0.60
2019-02-17T06:15:11.703Z,0.57
2019-02-17T06:16:11.725Z,0.44
2019-02-17T06:17:11.748Z,0.38
2019-02-17T06:18:11.771Z,0.39
2019-02-17T06:19:11.795Z,0.36
2019-02-17T06:20:11.853Z,0.33
2019-02-17T06:21:11.850Z,0.46
2019-02-17T06:22:11.865Z,0.50
2019-02-17T06:23:11.893Z,0.38
2019-02-17T06:24:11.915Z,0.47
2019-02-17T06:25:11.935Z,0.47
2019-02-17T06:26:11.958Z,0.47
2019-02-17T06:27:11.980Z,0.49
2019-02-17T06:28:12.005Z,0.53
2019-02-17T06:29:12.032Z,0.46
2019-02-17T06:30:12.053Z,0.51
2019-02-17T06:31:14.644Z,0.49
2019-02-17T06:32:12.099Z,0.49
2019-02-17T06:33:12.121Z,0.47
2019-02-17T06:34:12.147Z,0.46
2019-02-17T06:35:12.171Z,0.36
2019-02-17T06:36:12.193Z,0.38
2019-02-17T06:37:12.274Z,0.33
2019-02-17T06:38:12.243Z,0.41
2019-02-17T06:39:12.263Z,0.32
2019-02-17T06:40:12.287Z,0.28
2019-02-17T06:41:12.308Z,0.24
2019-02-17T06:42:12.337Z,0.35
2019-02-17T06:43:12.359Z,0.33
2019-02-17T06:44:12.381Z,0.39
2019-02-17T06:45:12.406Z,0.33
2019-02-17T06:46:12.427Z,0.35
2019-02-17T06:47:12.451Z,0.60
2019-02-17T06:48:12.474Z,0.55
2019-02-17T06:49:12.546Z,0.68
2019-02-17T06:50:12.522Z,0.69
2019-02-17T06:51:12.542Z,0.83
2019-02-17T06:52:12.568Z,0.83
2019-02-17T06:53:12.590Z,0.78
2019-02-17T06:54:12.615Z,0.90
2019-02-17T06:55:12.637Z,0.90
2019-02-17T06:56:12.661Z,1.02
2019-02-17T06:57:12.684Z,1.00
2019-02-17T06:58:12.709Z,1.08
2019-02-17T06:59:12.731Z,1.08
2019-02-17T07:00:12.757Z,1.27
2019-02-17T07:01:12.779Z,1.27
2019-02-17T07:02:12.803Z,1.22
2019-02-17T07:03:14.403Z,1.23
2019-02-17T07:04:12.850Z,1.27
2019-02-17T07:05:12.873Z,1.36
2019-02-17T07:06:12.926Z,1.33
2019-02-17T07:07:12.919Z,1.34
2019-02-17T07:08:12.951Z,1.36
2019-02-17T07:09:12.965Z,1.40
2019-02-17T07:10:12.990Z,1.37
2019-02-17T07:11:13.014Z,1.36
2019-02-17T07:12:13.038Z,1.48
2019-02-17T07:13:13.061Z,1.51
2019-02-17T07:14:13.084Z,1.59
2019-02-17T07:15:13.107Z,1.66
2019-02-17T07:16:13.132Z,1.66
2019-02-17T07:17:13.155Z,1.81
2019-02-17T07:18:13.180Z,1.77
2019-02-17T07:19:13.204Z,1.77
2019-02-17T07:20:13.232Z,1.77
2019-02-17T07:21:13.251Z,1.83
2019-02-17T07:22:13.275Z,1.81
2019-02-17T07:23:15.181Z,1.88
2019-02-17T07:24:13.323Z,1.87
2019-02-17T07:25:13.366Z,1.87
2019-02-17T07:26:13.371Z,1.90
2019-02-17T07:27:13.396Z,2.03
2019-02-17T07:28:13.421Z,2.02
2019-02-17T07:29:13.444Z,2.14
2019-02-17T07:30:13.472Z,2.17
2019-02-17T07:31:13.492Z,2.27
2019-02-17T07:32:13.517Z,2.28
2019-02-17T07:33:13.545Z,2.35
2019-02-17T07:34:13.566Z,2.45
2019-02-17T07:35:13.598Z,2.56
2019-02-17T07:36:13.623Z,2.66
2019-02-17T07:37:13.647Z,2.93
2019-02-17T07:38:13.668Z,3.26
2019-02-17T07:39:13.689Z,3.51
2019-02-17T07:40:13.714Z,3.51
2019-02-17T07:41:13.737Z,3.52
2019-02-17T07:42:13.764Z,4.06
2019-02-17T07:43:13.804Z,4.77
2019-02-17T07:44:13.814Z,5.75
2019-02-17T07:45:13.840Z,6.89
2019-02-17T07:46:13.864Z,7.85
2019-02-17T07:47:13.889Z,8.68
2019-02-17T07:48:13.917Z,9.28
2019-02-17T07:49:13.940Z,9.69
2019-02-17T07:50:13.965Z,9.83
2019-02-17T07:51:13.991Z,9.83
2019-02-17T07:52:14.018Z,9.54
2019-02-17T07:53:14.043Z,9.14
2019-02-17T07:54:14.069Z,8.68
2019-02-17T07:55:14.094Z,8.25
2019-02-17T07:56:14.126Z,7.83
2019-02-17T07:57:14.146Z,8.00
2019-02-17T07:58:14.173Z,8.71
2019-02-17T07:59:14.197Z,9.81
2019-02-17T08:00:14.225Z,10.63
2019-02-17T08:01:14.255Z,11.67
2019-02-17T08:02:14.279Z,12.34
2019-02-17T08:03:14.304Z,12.78
2019-02-17T08:04:14.332Z,13.17
2019-02-17T08:05:14.357Z,13.89
2019-02-17T08:06:14.384Z,14.22
2019-02-17T08:07:14.412Z,14.54
2019-02-17T08:08:14.437Z,14.69
2019-02-17T08:09:14.467Z,14.69
2019-02-17T08:10:14.492Z,14.70
2019-02-17T08:11:14.521Z,14.92
2019-02-17T08:12:16.752Z,15.11
2019-02-17T08:13:14.574Z,15.59
2019-02-17T08:14:14.602Z,15.74
2019-02-17T08:15:14.631Z,15.97
2019-02-17T08:16:14.664Z,15.93
2019-02-17T08:17:14.690Z,15.68
2019-02-17T08:18:14.715Z,15.93
2019-02-17T08:19:14.743Z,16.00
2019-02-17T08:20:14.773Z,16.41
2019-02-17T08:21:14.801Z,16.61
2019-02-17T08:22:14.828Z,16.83
2019-02-17T08:23:14.859Z,17.15
2019-02-17T08:24:14.885Z,17.46
2019-02-17T08:25:21.859Z,17.59
2019-02-17T08:26:14.944Z,17.63
2019-02-17T08:27:14.982Z,17.46
2019-02-17T08:28:15.006Z,17.48
2019-02-17T08:29:15.032Z,17.72
2019-02-17T08:30:15.061Z,17.84
2019-02-17T08:31:15.091Z,18.08
2019-02-17T08:32:15.127Z,17.70
2019-02-17T08:33:15.150Z,17.23
2019-02-17T08:34:15.180Z,17.49
2019-02-17T08:35:15.211Z,17.18
2019-02-17T08:36:15.241Z,17.75
2019-02-17T08:37:15.270Z,18.10
2019-02-17T08:38:15.302Z,18.29
2019-02-17T08:39:15.334Z,18.82
2019-02-17T08:40:15.364Z,19.33
2019-02-17T08:41:15.395Z,19.43
2019-02-17T08:42:15.425Z,19.71
2019-02-17T08:43:15.455Z,19.77
2019-02-17T08:44:15.490Z,19.39
2019-02-17T08:45:15.517Z,19.66
2019-02-17T08:46:15.550Z,19.96
2019-02-17T08:47:15.580Z,19.71
2019-02-17T08:48:15.616Z,20.10
2019-02-17T08:49:15.643Z,20.35
2019-02-17T08:50:15.675Z,20.51
2019-02-17T08:51:15.709Z,20.17
2019-02-17T08:52:15.740Z,20.36
2019-02-17T08:53:15.772Z,19.98
2019-02-17T08:54:15.805Z,20.51
2019-02-17T08:55:15.839Z,20.80
2019-02-17T08:56:15.869Z,21.16
2019-02-17T08:57:15.904Z,21.24
2019-02-17T08:58:15.936Z,21.42
2019-02-17T08:59:15.970Z,20.77
2019-02-17T09:00:16.008Z,20.84
2019-02-17T09:01:16.036Z,21.40
2019-02-17T09:02:16.071Z,21.68
2019-02-17T09:03:16.104Z,21.35
2019-02-17T09:04:16.139Z,20.89
2019-02-17T09:05:16.503Z,20.91
2019-02-17T09:06:16.211Z,21.07
2019-02-17T09:07:16.242Z,20.36
2019-02-17T09:08:16.277Z,21.04
2019-02-17T09:09:16.311Z,21.29
2019-02-17T09:10:16.347Z,21.03
2019-02-17T09:11:16.382Z,21.25
2019-02-17T09:12:16.419Z,21.21
2019-02-17T09:13:18.468Z,21.25
2019-02-17T09:14:16.489Z,21.69
2019-02-17T09:15:16.523Z,22.02
2019-02-17T09:16:16.589Z,22.39
2019-02-17T09:17:16.602Z,22.60
2019-02-17T09:18:16.631Z,22.80
2019-02-17T09:19:16.668Z,22.72
2019-02-17T09:20:16.939Z,22.83
2019-02-17T09:21:16.742Z,23.01
2019-02-17T09:22:16.777Z,22.92
2019-02-17T09:23:16.815Z,22.55
2019-02-17T09:24:16.856Z,22.37
2019-02-17T09:25:16.888Z,22.28
2019-02-17T09:26:16.956Z,21.99
2019-02-17T09:27:16.963Z,22.77
2019-02-17T09:28:17.001Z,23.42
2019-02-17T09:29:17.038Z,24.10
2019-02-17T09:31:17.113Z,24.47
2019-02-17T09:32:17.151Z,24.55
2019-02-17T09:33:17.188Z,24.84
2019-02-17T09:34:17.232Z,25.18
2019-02-17T09:35:17.265Z,25.79
2019-02-17T09:36:17.306Z,25.90
2019-02-17T09:37:17.343Z,25.98
2019-02-17T09:38:17.381Z,26.26
2019-02-17T09:39:17.422Z,26.35
2019-02-17T09:40:17.460Z,25.73
2019-02-17T09:41:17.498Z,26.15
2019-02-17T09:42:17.537Z,26.45
2019-02-17T09:43:17.578Z,26.94
2019-02-17T09:44:17.618Z,26.94
2019-02-17T09:45:17.656Z,25.85
2019-02-17T09:46:17.697Z,25.51
2019-02-17T09:47:17.739Z,26.40
2019-02-17T09:48:17.781Z,26.92
2019-02-17T09:49:17.818Z,26.94
2019-02-17T09:50:17.860Z,27.00
2019-02-17T09:51:17.900Z,27.10
2019-02-17T09:52:17.940Z,27.46
2019-02-17T09:53:17.981Z,27.60
2019-02-17T09:54:18.022Z,27.59
2019-02-17T09:55:18.066Z,27.57
2019-02-17T09:56:18.104Z,27.28
2019-02-17T09:57:18.148Z,27.17
2019-02-17T09:58:18.187Z,27.07
2019-02-17T09:59:18.229Z,27.31
2019-02-17T10:00:18.272Z,27.75
2019-02-17T10:01:18.314Z,27.92
2019-02-17T10:02:26.288Z,27.46
2019-02-17T10:03:18.398Z,27.47
2019-02-17T10:04:18.438Z,28.00
2019-02-17T10:05:18.481Z,27.55
2019-02-17T10:06:18.524Z,25.83
2019-02-17T10:07:18.567Z,24.80
2019-02-17T10:08:18.608Z,24.67
2019-02-17T10:09:18.653Z,24.49
2019-02-17T10:10:18.696Z,25.09
2019-02-17T10:11:18.739Z,25.13
2019-02-17T10:12:18.783Z,25.20
2019-02-17T10:13:18.828Z,25.32
2019-02-17T10:14:18.867Z,25.52
2019-02-17T10:15:18.911Z,24.58
2019-02-17T10:16:18.954Z,24.76
2019-02-17T10:17:18.998Z,25.18
2019-02-17T10:18:19.039Z,25.60
2019-02-17T10:19:19.087Z,25.85
2019-02-17T10:20:19.130Z,26.39
2019-02-17T10:21:19.172Z,25.45
2019-02-17T10:22:19.215Z,25.72
2019-02-17T10:23:19.260Z,25.99
2019-02-17T10:24:19.305Z,26.32
2019-02-17T10:25:19.347Z,25.69
2019-02-17T10:26:19.399Z,26.02
2019-02-17T10:27:19.437Z,24.90
2019-02-17T10:28:19.480Z,25.46
2019-02-17T10:29:19.525Z,25.62
2019-02-17T10:30:19.570Z,24.31
2019-02-17T10:31:19.615Z,24.90
2019-02-17T10:32:19.659Z,25.57
2019-02-17T10:33:19.704Z,25.13
2019-02-17T10:34:19.749Z,25.98
2019-02-17T10:35:19.793Z,25.85
2019-02-17T10:36:19.840Z,25.25
2019-02-17T10:37:19.884Z,25.88
2019-02-17T10:38:19.928Z,25.03
2019-02-17T10:39:19.974Z,24.27
2019-02-17T10:40:20.019Z,25.15
2019-02-17T10:41:20.064Z,25.76
2019-02-17T10:42:20.113Z,25.06
2019-02-17T10:43:20.155Z,24.73
2019-02-17T10:44:20.203Z,25.15
2019-02-17T10:45:20.249Z,25.62
2019-02-17T10:46:20.296Z,26.21
2019-02-17T10:47:20.341Z,26.09
2019-02-17T10:48:20.401Z,26.70
2019-02-17T10:49:20.436Z,27.28
2019-02-17T10:50:20.475Z,27.10
2019-02-17T10:51:20.521Z,27.43
2019-02-17T10:52:20.571Z,27.41
2019-02-17T10:53:20.616Z,27.13
2019-02-17T10:54:22.940Z,27.37
2019-02-17T10:55:20.710Z,27.37
2019-02-17T10:56:20.754Z,26.72
2019-02-17T10:57:20.798Z,27.14
2019-02-17T10:58:20.846Z,27.62
2019-02-17T10:59:21.500Z,27.81
2019-02-17T11:01:20.986Z,27.51
2019-02-17T11:02:21.032Z,26.73
2019-02-17T11:03:21.100Z,27.03
2019-02-17T11:04:21.125Z,27.43
2019-02-17T11:05:21.173Z,27.54
2019-02-17T11:06:21.237Z,26.67
2019-02-17T11:07:21.267Z,26.50
2019-02-17T11:08:21.516Z,26.55
2019-02-17T11:09:21.361Z,27.29
2019-02-17T11:12:23.531Z,27.96
2019-02-17T11:13:21.574Z,27.46
2019-02-17T11:14:21.602Z,27.29
2019-02-17T11:15:23.060Z,27.78
2019-02-17T11:16:21.692Z,28.15
2019-02-17T11:17:21.738Z,27.07
2019-02-17T11:18:21.786Z,27.34
2019-02-17T11:19:21.860Z,26.05
2019-02-17T11:20:21.905Z,26.58
2019-02-17T11:21:21.930Z,26.62
2019-02-17T11:22:23.354Z,27.21
2019-02-17T11:23:22.024Z,27.51
2019-02-17T11:24:22.072Z,26.89
2019-02-17T11:25:22.118Z,26.35
2019-02-17T11:26:22.166Z,26.99
2019-02-17T11:27:22.216Z,27.31
2019-02-17T11:28:22.263Z,26.91
2019-02-17T11:29:22.360Z,27.19
2019-02-17T11:30:22.358Z,27.22
2019-02-17T11:31:22.405Z,26.84
2019-02-17T11:32:22.453Z,28.04
2019-02-17T11:33:22.500Z,27.94
2019-02-17T11:34:22.551Z,28.06
2019-02-17T11:35:22.923Z,27.57
2019-02-17T11:36:22.644Z,27.84
2019-02-17T11:37:22.692Z,27.04
2019-02-17T11:38:22.738Z,27.28
2019-02-17T11:39:22.786Z,27.44
2019-02-17T11:40:22.833Z,26.73
2019-02-17T11:41:22.880Z,26.06
2019-02-17T11:42:22.929Z,26.66
2019-02-17T11:43:22.977Z,27.13
2019-02-17T11:44:23.025Z,26.94
2019-02-17T11:45:23.071Z,27.19
2019-02-17T11:46:23.120Z,27.69
2019-02-17T11:47:23.169Z,27.65
2019-02-17T11:48:23.215Z,27.82
2019-02-17T11:49:23.264Z,27.62
2019-02-17T11:50:23.362Z,28.22
2019-02-17T11:51:23.399Z,27.59
2019-02-17T11:52:23.409Z,28.14
2019-02-17T11:53:23.458Z,27.96
2019-02-17T11:54:23.502Z,28.93
2019-02-17T11:55:23.551Z,28.81
2019-02-17T11:56:23.597Z,28.36
2019-02-17T11:57:23.646Z,28.34
2019-02-17T11:58:23.695Z,28.74
2019-02-17T11:59:23.742Z,28.49
2019-02-17T12:00:23.792Z,28.46
2019-02-17T12:01:23.838Z,28.86
2019-02-17T12:02:25.285Z,29.67
2019-02-17T12:03:23.936Z,28.48
2019-02-17T12:04:23.984Z,27.92
2019-02-17T12:05:24.032Z,29.02
2019-02-17T12:06:24.080Z,28.92
2019-02-17T12:07:24.181Z,28.34
2019-02-17T12:08:24.179Z,29.04
2019-02-17T12:09:24.233Z,29.64
2019-02-17T12:10:24.273Z,28.19
2019-02-17T12:11:24.322Z,28.41
2019-02-17T12:12:24.374Z,27.79
2019-02-17T12:13:24.419Z,28.04
2019-02-17T12:14:24.468Z,27.96
2019-02-17T12:15:24.517Z,28.51
2019-02-17T12:16:24.567Z,27.41
2019-02-17T12:17:24.612Z,27.60
2019-02-17T12:18:24.663Z,27.84
2019-02-17T12:19:24.710Z,27.69
2019-02-17T12:20:24.766Z,27.17
2019-02-17T12:21:24.806Z,27.87
2019-02-17T12:22:24.855Z,27.97
2019-02-17T12:23:24.904Z,26.65
2019-02-17T12:24:24.974Z,26.40
2019-02-17T12:25:24.999Z,27.21
2019-02-17T12:26:25.049Z,27.74
2019-02-17T12:27:25.099Z,27.78
2019-02-17T12:28:25.145Z,27.74
2019-02-17T12:29:25.194Z,28.21
2019-02-17T12:30:25.241Z,27.32
2019-02-17T12:31:25.290Z,26.70
2019-02-17T12:32:25.343Z,26.48
2019-02-17T12:33:25.390Z,26.18
2019-02-17T12:34:25.435Z,26.45
2019-02-17T12:35:25.482Z,27.10
2019-02-17T12:36:25.533Z,26.69
2019-02-17T12:37:25.578Z,27.13
2019-02-17T12:38:25.626Z,27.54
2019-02-17T12:39:25.672Z,28.33
2019-02-17T12:40:25.723Z,26.72
2019-02-17T12:41:25.770Z,26.92
2019-02-17T12:42:25.817Z,25.88
2019-02-17T12:43:25.864Z,27.03
2019-02-17T12:44:25.914Z,26.72
2019-02-17T12:45:25.961Z,26.66
2019-02-17T12:46:26.011Z,27.10
2019-02-17T12:47:26.055Z,27.67
2019-02-17T12:48:26.103Z,28.55
2019-02-17T12:49:26.149Z,28.30
2019-02-17T12:50:26.197Z,28.70
2019-02-17T12:51:26.245Z,29.51
2019-02-17T12:52:26.295Z,28.55
2019-02-17T12:53:26.338Z,28.98
2019-02-17T12:54:29.149Z,28.83
2019-02-17T12:55:26.435Z,29.14
2019-02-17T12:56:26.484Z,29.41
2019-02-17T12:57:26.532Z,29.37
2019-02-17T12:58:29.940Z,28.66
2019-02-17T12:59:26.629Z,28.73
2019-02-17T13:00:26.676Z,30.00
2019-02-17T13:01:26.723Z,30.39
2019-02-17T13:02:26.772Z,29.87
2019-02-17T13:03:28.793Z,29.73
2019-02-17T13:04:26.866Z,30.72
2019-02-17T13:05:26.916Z,30.82
2019-02-17T13:06:26.970Z,30.51
2019-02-17T13:07:27.012Z,31.14
2019-02-17T13:08:27.059Z,31.44
2019-02-17T13:09:27.106Z,31.66
2019-02-17T13:10:27.155Z,31.53
2019-02-17T13:11:27.203Z,31.07